createdAt,value
2023-02-03T00:01:40.868Z,5.74
2023-02-03T00:06:59.681Z,5.79
2023-02-03T00:12:18.932Z,5.84
2023-02-03T00:17:38.621Z,5.85
2023-02-03T00:22:57.878Z,5.85
2023-02-03T00:28:17.169Z,5.88
2023-02-03T00:33:36.329Z,5.89
2023-02-03T00:38:56.701Z,5.92
2023-02-03T00:44:15.924Z,5.91
2023-02-03T00:49:34.862Z,5.94
2023-02-03T00:54:54.504Z,5.92
2023-02-03T01:00:13.288Z,5.92
2023-02-03T01:06:37.894Z,5.92
2023-02-03T01:10:53.220Z,5.88
2023-02-03T01:17:27.376Z,5.84
2023-02-03T01:21:31.507Z,5.82
2023-02-03T01:26:51.019Z,5.88
2023-02-03T01:32:09.445Z,5.89
2023-02-03T01:37:28.760Z,5.95
2023-02-03T01:42:47.709Z,5.75
2023-02-03T01:48:08.193Z,5.58
2023-02-03T01:53:27.067Z,5.48
2023-02-03T01:58:45.864Z,5.38
2023-02-03T02:04:04.690Z,5.3
2023-02-03T02:09:24.246Z,5.3
2023-02-03T02:14:42.912Z,5.29
2023-02-03T02:20:02.388Z,5.33
2023-02-03T02:25:22.127Z,5.29
2023-02-03T02:30:41.810Z,5.31
2023-02-03T02:36:00.984Z,5.37
2023-02-03T02:41:20.449Z,5.43
2023-02-03T02:46:39.768Z,5.57
2023-02-03T02:51:58.856Z,5.65
2023-02-03T02:57:18.627Z,5.74
2023-02-03T03:02:38.279Z,5.79
2023-02-03T03:07:57.629Z,5.84
2023-02-03T03:13:17.042Z,5.94
2023-02-03T03:18:36.737Z,5.98
2023-02-03T03:23:56.217Z,5.94
2023-02-03T03:29:15.713Z,5.95
2023-02-03T03:34:34.633Z,5.92
2023-02-03T03:39:54.256Z,5.84
2023-02-03T03:50:33.412Z,5.61
2023-02-03T03:55:52.821Z,5.51
2023-02-03T04:01:11.808Z,5.46
2023-02-03T04:06:30.726Z,5.43
2023-02-03T04:11:50.531Z,5.41
2023-02-03T04:17:09.983Z,5.41
2023-02-03T04:22:29.217Z,5.41
2023-02-03T04:27:48.192Z,5.41
2023-02-03T04:33:07.571Z,5.44
2023-02-03T04:38:26.570Z,5.38
2023-02-03T04:43:45.454Z,5.3
2023-02-03T04:49:05.633Z,5.26
2023-02-03T04:54:24.992Z,5.26
2023-02-03T04:59:43.144Z,5.23
2023-02-03T05:05:02.140Z,5.22
2023-02-03T05:10:21.890Z,5.24
2023-02-03T05:15:40.654Z,5.24
2023-02-03T05:21:00.226Z,5.26
2023-02-03T05:26:19.601Z,5.22
2023-02-03T05:31:38.428Z,5.24
2023-02-03T05:36:57.315Z,5.23
2023-02-03T05:42:16.697Z,5.26
2023-02-03T05:47:36.107Z,5.24
2023-02-03T05:52:55.343Z,5.26
2023-02-03T05:58:14.497Z,5.24
2023-02-03T06:03:33.390Z,5.27
2023-02-03T06:08:52.901Z,5.23
2023-02-03T06:14:12.623Z,5.29
2023-02-03T06:19:32.030Z,5.33
2023-02-03T06:24:51.061Z,5.34
2023-02-03T06:30:10.864Z,5.29
2023-02-03T06:35:30.678Z,5.3
2023-02-03T06:40:49.164Z,5.29
2023-02-03T06:46:08.526Z,5.3
2023-02-03T06:51:27.538Z,5.33
2023-02-03T06:56:46.065Z,5.41
2023-02-03T07:02:05.431Z,5.38
2023-02-03T07:07:24.716Z,5.38
2023-02-03T07:12:44.296Z,5.38
2023-02-03T07:18:03.978Z,5.3
2023-02-03T07:23:23.370Z,5.26
2023-02-03T07:28:42.699Z,5.26
2023-02-03T07:34:01.483Z,5.36
2023-02-03T07:39:20.415Z,5.48
2023-02-03T07:44:40.097Z,5.55
2023-02-03T07:49:59.682Z,5.64
2023-02-03T07:55:18.620Z,5.69
2023-02-03T08:00:37.560Z,5.68
2023-02-03T08:05:57.117Z,5.71
2023-02-03T08:11:16.268Z,5.75
2023-02-03T08:16:35.746Z,5.84
2023-02-03T08:21:55.267Z,5.88
2023-02-03T08:27:14.537Z,5.91
2023-02-03T08:32:33.993Z,5.92
2023-02-03T08:37:53.522Z,5.95
2023-02-03T08:43:12.345Z,5.98
2023-02-03T08:48:31.292Z,5.99
2023-02-03T08:53:51.220Z,6.05
2023-02-03T08:59:09.802Z,5.91
2023-02-03T09:04:29.328Z,5.69
2023-02-03T09:09:48.175Z,5.62
2023-02-03T09:15:07.727Z,5.65
2023-02-03T09:20:27.131Z,5.78
2023-02-03T09:25:47.865Z,5.88
2023-02-03T09:31:05.523Z,5.97
2023-02-03T09:36:25.014Z,5.97
2023-02-03T09:41:44.073Z,6.01
2023-02-03T09:47:03.587Z,6.03
2023-02-03T09:52:22.440Z,6.12
2023-02-03T09:57:41.871Z,6.15
2023-02-03T10:03:00.949Z,6.15
2023-02-03T10:08:19.900Z,6.23
2023-02-03T10:13:39.603Z,6.3
2023-02-03T10:18:59.357Z,6.3
2023-02-03T10:24:18.831Z,6.34
2023-02-03T10:29:37.948Z,6.36
2023-02-03T10:34:56.791Z,6.39
2023-02-03T10:40:15.911Z,6.39
2023-02-03T10:45:34.799Z,6.4
2023-02-03T10:50:53.825Z,6.36
2023-02-03T10:56:12.782Z,6.37
2023-02-03T11:01:32.176Z,6.37
2023-02-03T11:06:51.017Z,6.41
2023-02-03T11:12:10.312Z,6.5
2023-02-03T11:17:29.875Z,6.61
2023-02-03T11:22:49.156Z,6.66
2023-02-03T11:28:08.646Z,6.64
2023-02-03T11:33:27.643Z,6.6
2023-02-03T11:38:46.728Z,6.56
2023-02-03T11:44:06.253Z,6.6
2023-02-03T11:49:25.224Z,6.61
2023-02-03T11:54:44.498Z,6.56
2023-02-03T12:00:04.015Z,6.49
2023-02-03T12:05:23.179Z,6.47
2023-02-03T12:10:41.913Z,6.39
2023-02-03T12:16:01.255Z,6.28
2023-02-03T12:21:20.032Z,6.22
2023-02-03T12:26:38.897Z,6.29
2023-02-03T12:31:57.727Z,6.36
2023-02-03T12:37:17.044Z,6.43
2023-02-03T12:42:36.346Z,6.44
2023-02-03T12:47:55.921Z,6.49
2023-02-03T12:53:16.074Z,6.53
2023-02-03T12:58:34.698Z,6.53
2023-02-03T13:03:52.677Z,6.5
2023-02-03T13:09:11.718Z,6.47
2023-02-03T13:14:30.904Z,6.39
2023-02-03T13:19:50.129Z,6.33
2023-02-03T13:25:09.313Z,6.32
2023-02-03T13:30:29.071Z,6.28
2023-02-03T13:35:47.931Z,6.25
2023-02-03T13:41:07.111Z,6.19
2023-02-03T13:46:26.743Z,6.18
2023-02-03T13:51:46.191Z,6.13
2023-02-03T13:57:05.183Z,6.15
2023-02-03T14:02:24.032Z,6.18
2023-02-03T14:02:49.103Z,6.34
2023-02-03T14:08:09.265Z,6.15
2023-02-03T14:13:27.293Z,6.15
2023-02-03T14:18:46.436Z,6.2
2023-02-03T14:24:05.738Z,6.19
2023-02-03T14:29:24.995Z,6.22
2023-02-03T14:34:44.266Z,6.22
2023-02-03T14:40:05.199Z,6.19
2023-02-03T14:45:22.287Z,6.2
2023-02-03T14:50:41.925Z,6.23
2023-02-03T14:56:01.217Z,6.33
2023-02-03T15:01:20.608Z,6.36
2023-02-03T15:06:40.332Z,6.34
2023-02-03T15:12:00.101Z,6.36
2023-02-03T15:17:19.226Z,6.39
2023-02-03T15:22:38.364Z,6.43
2023-02-03T15:27:57.745Z,6.39
2023-02-03T15:33:16.994Z,6.41
2023-02-03T15:38:36.281Z,6.37
2023-02-03T15:43:55.083Z,6.4
2023-02-03T15:49:15.896Z,6.36
2023-02-03T15:54:34.228Z,6.3
2023-02-03T15:59:53.827Z,6.32
2023-02-03T16:05:13.344Z,6.33
2023-02-03T16:10:33.138Z,6.32
2023-02-03T16:15:52.302Z,6.32
2023-02-03T16:21:11.790Z,6.32
2023-02-03T16:26:31.507Z,6.36
2023-02-03T16:31:51.252Z,6.33
2023-02-03T16:37:10.229Z,6.36
2023-02-03T16:42:29.615Z,6.34
2023-02-03T16:47:48.481Z,6.34
2023-02-03T16:53:07.581Z,6.37
2023-02-03T16:58:26.475Z,6.37
2023-02-03T17:03:45.940Z,6.37
2023-02-03T17:09:05.165Z,6.36
2023-02-03T17:14:24.142Z,6.37
2023-02-03T17:19:43.778Z,6.39
2023-02-03T17:25:02.794Z,6.39
2023-02-03T17:30:21.600Z,6.41
2023-02-03T17:35:41.088Z,6.39
2023-02-03T17:56:58.209Z,6.43
2023-02-03T18:02:17.905Z,6.47
2023-02-03T18:07:36.952Z,6.51
2023-02-03T18:12:55.996Z,6.57
2023-02-03T18:18:14.832Z,6.61
2023-02-03T18:23:34.226Z,6.63
2023-02-03T18:28:52.864Z,6.58
2023-02-03T18:34:11.748Z,6.6
2023-02-03T18:39:30.606Z,6.61
2023-02-03T18:44:50.260Z,6.63
2023-02-03T18:50:09.340Z,6.67
2023-02-03T18:55:28.859Z,6.67
2023-02-03T19:00:48.798Z,6.67
2023-02-03T19:06:07.771Z,6.71
2023-02-03T19:11:27.314Z,6.77
2023-02-03T19:16:46.549Z,6.84
2023-02-03T19:22:05.454Z,6.9
2023-02-03T19:27:24.561Z,6.88
2023-02-03T19:32:43.932Z,6.88
2023-02-03T19:38:03.661Z,6.78
2023-02-03T19:43:22.720Z,6.78
2023-02-03T19:48:41.834Z,6.78
2023-02-03T19:54:00.886Z,6.77
2023-02-03T19:59:20.164Z,6.77
2023-02-03T20:04:39.046Z,6.73
2023-02-03T20:09:57.966Z,6.78
2023-02-03T20:15:17.344Z,6.83
2023-02-03T20:20:36.094Z,6.85
2023-02-03T20:25:55.220Z,6.84
2023-02-03T20:31:14.871Z,6.95
2023-02-03T20:36:33.530Z,7.08
2023-02-03T20:41:53.102Z,7.16
2023-02-03T20:47:11.997Z,7.22
2023-02-03T20:52:31.582Z,7.25
2023-02-03T20:57:50.799Z,7.39
2023-02-03T21:03:10.314Z,7.45
2023-02-03T21:08:30.017Z,7.46
2023-02-03T21:13:49.401Z,7.55
2023-02-03T21:19:08.233Z,7.56
2023-02-03T21:24:26.840Z,7.6
2023-02-03T21:29:46.460Z,7.62
2023-02-03T21:35:06.956Z,7.71
2023-02-03T21:40:25.183Z,7.63
2023-02-03T21:45:44.495Z,7.66
2023-02-03T21:51:03.789Z,7.65
2023-02-03T21:56:22.958Z,7.66
2023-02-03T22:01:42.148Z,7.59
2023-02-03T22:07:01.913Z,7.49
2023-02-03T22:12:21.070Z,7.45
2023-02-03T22:17:40.151Z,7.55
2023-02-03T22:22:59.490Z,7.52
2023-02-03T22:28:18.579Z,7.5
2023-02-03T22:33:37.904Z,7.45
2023-02-03T22:38:57.756Z,7.45
2023-02-03T22:44:17.085Z,7.36
2023-02-03T22:49:36.424Z,7.38
2023-02-03T22:54:55.803Z,7.36
2023-02-03T23:00:14.952Z,7.33
2023-02-03T23:05:34.632Z,7.32
2023-02-03T23:10:53.812Z,7.35
2023-02-03T23:16:12.857Z,7.3
2023-02-03T23:21:31.627Z,7.28
2023-02-03T23:26:51.213Z,7.18
2023-02-03T23:32:11.438Z,7.15
2023-02-03T23:37:31.115Z,7.12
2023-02-03T23:42:50.657Z,7.12
2023-02-03T23:48:09.440Z,7.11
2023-02-03T23:53:29.553Z,7.08
2023-02-03T23:58:55.567Z,7.15
